sensor_id;sensor_type;location;lat;lon;timestamp;pressure;altitude;pressure_sealevel;temperature;humidity
78773;BME280;68111;44.728;11.290;2023-08-17T00:01:32;101502.72;;;29.28;42.48
78773;BME280;68111;44.728;11.290;2023-08-17T00:03:59;101501.09;;;29.25;42.67
78773;BME280;68111;44.728;11.290;2023-08-17T00:06:26;101499.44;;;29.23;42.61
78773;BME280;68111;44.728;11.290;2023-08-17T00:08:53;101493.22;;;29.21;43.05
78773;BME280;68111;44.728;11.290;2023-08-17T00:11:20;101492.53;;;29.17;43.03
78773;BME280;68111;44.728;11.290;2023-08-17T00:13:48;101482.72;;;29.15;43.47
78773;BME280;68111;44.728;11.290;2023-08-17T00:16:15;101488.25;;;29.13;43.68
78773;BME280;68111;44.728;11.290;2023-08-17T00:18:41;101491.06;;;29.12;43.24
78773;BME280;68111;44.728;11.290;2023-08-17T00:21:08;101486.69;;;29.09;43.67
78773;BME280;68111;44.728;11.290;2023-08-17T00:23:35;101488.94;;;29.03;43.95
78773;BME280;68111;44.728;11.290;2023-08-17T00:26:02;101484.94;;;28.94;44.36
78773;BME280;68111;44.728;11.290;2023-08-17T00:28:29;101479.22;;;28.84;44.56
78773;BME280;68111;44.728;11.290;2023-08-17T00:30:56;101482.38;;;28.77;45.04
78773;BME280;68111;44.728;11.290;2023-08-17T00:33:23;101476.53;;;28.68;45.04
78773;BME280;68111;44.728;11.290;2023-08-17T00:35:49;101488.94;;;28.58;45.52
78773;BME280;68111;44.728;11.290;2023-08-17T00:38:17;101489.59;;;28.48;46.11
78773;BME280;68111;44.728;11.290;2023-08-17T00:40:44;101489.44;;;28.35;46.21
78773;BME280;68111;44.728;11.290;2023-08-17T00:43:11;101496.41;;;28.25;46.83
78773;BME280;68111;44.728;11.290;2023-08-17T00:45:38;101499.56;;;28.17;46.80
78773;BME280;68111;44.728;11.290;2023-08-17T00:48:05;101493.59;;;28.11;47.16
78773;BME280;68111;44.728;11.290;2023-08-17T00:50:35;101494.94;;;28.03;47.28
78773;BME280;68111;44.728;11.290;2023-08-17T00:53:03;101498.09;;;27.96;47.33
78773;BME280;68111;44.728;11.290;2023-08-17T00:55:30;101485.66;;;27.92;47.75
78773;BME280;68111;44.728;11.290;2023-08-17T00:57:58;101491.09;;;27.92;47.48
78773;BME280;68111;44.728;11.290;2023-08-17T01:00:25;101499.16;;;27.93;47.62
78773;BME280;68111;44.728;11.290;2023-08-17T01:02:57;101502.84;;;27.92;47.67
78773;BME280;68111;44.728;11.290;2023-08-17T01:05:24;101496.44;;;27.93;47.91
78773;BME280;68111;44.728;11.290;2023-08-17T01:07:50;101502.84;;;27.92;47.74
78773;BME280;68111;44.728;11.290;2023-08-17T01:10:17;101503.91;;;27.90;47.78
78773;BME280;68111;44.728;11.290;2023-08-17T01:15:24;101502.31;;;27.86;47.94
78773;BME280;68111;44.728;11.290;2023-08-17T01:20:35;101501.44;;;27.85;48.13
78773;BME280;68111;44.728;11.290;2023-08-17T01:23:05;101496.19;;;27.82;47.58
78773;BME280;68111;44.728;11.290;2023-08-17T01:25:33;101493.66;;;27.79;47.92
78773;BME280;68111;44.728;11.290;2023-08-17T01:28:04;101501.09;;;27.76;48.01
78773;BME280;68111;44.728;11.290;2023-08-17T01:33:28;101507.59;;;27.73;48.04
78773;BME280;68111;44.728;11.290;2023-08-17T01:38:45;101503.81;;;27.76;47.90
78773;BME280;68111;44.728;11.290;2023-08-17T01:41:12;101503.81;;;27.76;47.63
78773;BME280;68111;44.728;11.290;2023-08-17T01:43:43;101504.78;;;27.75;47.89
78773;BME280;68111;44.728;11.290;2023-08-17T01:46:15;101501.38;;;27.71;47.75
78773;BME280;68111;44.728;11.290;2023-08-17T01:48:42;101505.13;;;27.68;48.40
78773;BME280;68111;44.728;11.290;2023-08-17T01:51:10;101502.69;;;27.64;48.14
78773;BME280;68111;44.728;11.290;2023-08-17T01:53:38;101494.72;;;27.61;48.26
78773;BME280;68111;44.728;11.290;2023-08-17T01:56:04;101498.53;;;27.57;48.66
78773;BME280;68111;44.728;11.290;2023-08-17T01:58:31;101499.75;;;27.51;48.67
78773;BME280;68111;44.728;11.290;2023-08-17T02:00:58;101497.38;;;27.45;48.53
78773;BME280;68111;44.728;11.290;2023-08-17T02:03:25;101490.38;;;27.41;49.07
78773;BME280;68111;44.728;11.290;2023-08-17T02:05:56;101479.59;;;27.39;49.25
78773;BME280;68111;44.728;11.290;2023-08-17T02:08:23;101487.75;;;27.39;49.08
78773;BME280;68111;44.728;11.290;2023-08-17T02:10:52;101486.00;;;27.38;49.11
78773;BME280;68111;44.728;11.290;2023-08-17T02:13:20;101488.88;;;27.35;49.04
78773;BME280;68111;44.728;11.290;2023-08-17T02:15:47;101495.44;;;27.31;49.10
78773;BME280;68111;44.728;11.290;2023-08-17T02:18:14;101504.53;;;27.30;49.15
78773;BME280;68111;44.728;11.290;2023-08-17T02:20:41;101504.53;;;27.30;49.25
78773;BME280;68111;44.728;11.290;2023-08-17T02:23:09;101508.06;;;27.32;49.35
78773;BME280;68111;44.728;11.290;2023-08-17T02:25:40;101501.59;;;27.35;49.19
78773;BME280;68111;44.728;11.290;2023-08-17T02:28:06;101513.16;;;27.38;49.15
78773;BME280;68111;44.728;11.290;2023-08-17T02:30:33;101507.56;;;27.41;49.13
78773;BME280;68111;44.728;11.290;2023-08-17T02:33:00;101512.19;;;27.39;49.04
78773;BME280;68111;44.728;11.290;2023-08-17T02:35:27;101505.97;;;27.37;48.87
78773;BME280;68111;44.728;11.290;2023-08-17T02:37:54;101499.75;;;27.35;48.86
78773;BME280;68111;44.728;11.290;2023-08-17T02:40:21;101499.09;;;27.30;48.99
78773;BME280;68111;44.728;11.290;2023-08-17T02:42:48;101498.38;;;27.27;49.22
78773;BME280;68111;44.728;11.290;2023-08-17T02:45:15;101496.88;;;27.21;49.41
78773;BME280;68111;44.728;11.290;2023-08-17T02:47:42;101498.91;;;27.18;49.38
78773;BME280;68111;44.728;11.290;2023-08-17T02:50:09;101495.56;;;27.13;49.26
78773;BME280;68111;44.728;11.290;2023-08-17T02:52:36;101488.38;;;27.12;49.73
78773;BME280;68111;44.728;11.290;2023-08-17T02:55:03;101487.41;;;27.13;49.88
78773;BME280;68111;44.728;11.290;2023-08-17T02:57:30;101490.03;;;27.14;49.73
78773;BME280;68111;44.728;11.290;2023-08-17T02:59:57;101491.00;;;27.13;49.54
78773;BME280;68111;44.728;11.290;2023-08-17T03:02:24;101496.44;;;27.13;49.54
78773;BME280;68111;44.728;11.290;2023-08-17T03:04:51;101497.31;;;27.14;49.62
78773;BME280;68111;44.728;11.290;2023-08-17T03:07:18;101494.69;;;27.12;49.50
78773;BME280;68111;44.728;11.290;2023-08-17T03:09:45;101485.59;;;27.13;49.72
78773;BME280;68111;44.728;11.290;2023-08-17T03:12:12;101482.88;;;27.13;49.91
78773;BME280;68111;44.728;11.290;2023-08-17T03:14:39;101481.19;;;27.10;50.05
78773;BME280;68111;44.728;11.290;2023-08-17T03:17:05;101475.84;;;27.09;49.91
78773;BME280;68111;44.728;11.290;2023-08-17T03:19:33;101479.69;;;27.05;50.15
78773;BME280;68111;44.728;11.290;2023-08-17T03:22:00;101480.13;;;26.97;50.02
78773;BME280;68111;44.728;11.290;2023-08-17T03:24:27;101475.88;;;26.92;50.24
78773;BME280;68111;44.728;11.290;2023-08-17T03:26:55;101473.31;;;26.89;50.35
78773;BME280;68111;44.728;11.290;2023-08-17T03:29:23;101480.75;;;26.85;50.60
78773;BME280;68111;44.728;11.290;2023-08-17T03:31:50;101476.38;;;26.83;50.38
78773;BME280;68111;44.728;11.290;2023-08-17T03:34:20;101476.44;;;26.81;50.39
78773;BME280;68111;44.728;11.290;2023-08-17T03:36:48;101473.13;;;26.76;50.53
78773;BME280;68111;44.728;11.290;2023-08-17T03:39:15;101483.16;;;26.74;50.24
78773;BME280;68111;44.728;11.290;2023-08-17T03:41:42;101485.16;;;26.70;50.33
78773;BME280;68111;44.728;11.290;2023-08-17T03:44:09;101484.38;;;26.68;50.69
78773;BME280;68111;44.728;11.290;2023-08-17T03:46:36;101482.78;;;26.64;50.73
78773;BME280;68111;44.728;11.290;2023-08-17T03:49:04;101479.44;;;26.59;50.70
78773;BME280;68111;44.728;11.290;2023-08-17T03:51:31;101484.22;;;26.54;50.98
78773;BME280;68111;44.728;11.290;2023-08-17T03:53:58;101492.44;;;26.53;51.24
78773;BME280;68111;44.728;11.290;2023-08-17T03:56:25;101499.88;;;26.49;51.40
78773;BME280;68111;44.728;11.290;2023-08-17T03:58:53;101501.94;;;26.44;51.19
78773;BME280;68111;44.728;11.290;2023-08-17T04:01:20;101511.03;;;26.43;51.03
78773;BME280;68111;44.728;11.290;2023-08-17T04:03:47;101518.44;;;26.39;51.30
78773;BME280;68111;44.728;11.290;2023-08-17T04:06:14;101521.25;;;26.38;51.45
78773;BME280;68111;44.728;11.290;2023-08-17T04:08:41;101510.47;;;26.36;51.69
78773;BME280;68111;44.728;11.290;2023-08-17T04:11:08;101513.97;;;26.38;51.48
78773;BME280;68111;44.728;11.290;2023-08-17T04:13:35;101518.38;;;26.41;51.16
78773;BME280;68111;44.728;11.290;2023-08-17T04:16:02;101516.44;;;26.43;51.43
78773;BME280;68111;44.728;11.290;2023-08-17T04:18:29;101522.69;;;26.45;51.16
78773;BME280;68111;44.728;11.290;2023-08-17T04:20:56;101514.53;;;26.45;51.22
78773;BME280;68111;44.728;11.290;2023-08-17T04:23:24;101522.69;;;26.45;51.15
78773;BME280;68111;44.728;11.290;2023-08-17T04:25:50;101513.75;;;26.43;51.04
78773;BME280;68111;44.728;11.290;2023-08-17T04:28:17;101507.38;;;26.44;51.20
78773;BME280;68111;44.728;11.290;2023-08-17T04:30:44;101503.69;;;26.45;51.18
78773;BME280;68111;44.728;11.290;2023-08-17T04:33:11;101501.94;;;26.44;51.40
78773;BME280;68111;44.728;11.290;2023-08-17T04:35:39;101505.38;;;26.48;51.28
78773;BME280;68111;44.728;11.290;2023-08-17T04:38:06;101501.69;;;26.49;51.32
78773;BME280;68111;44.728;11.290;2023-08-17T04:40:33;101498.91;;;26.50;51.03
78773;BME280;68111;44.728;11.290;2023-08-17T04:43:00;101505.13;;;26.52;51.35
78773;BME280;68111;44.728;11.290;2023-08-17T04:45:28;101501.28;;;26.56;51.07
78773;BME280;68111;44.728;11.290;2023-08-17T04:47:54;101503.06;;;26.57;51.11
78773;BME280;68111;44.728;11.290;2023-08-17T04:50:22;101501.28;;;26.56;50.97
78773;BME280;68111;44.728;11.290;2023-08-17T04:52:49;101496.84;;;26.55;51.07
78773;BME280;68111;44.728;11.290;2023-08-17T04:55:16;101499.53;;;26.55;51.11
78773;BME280;68111;44.728;11.290;2023-08-17T04:57:43;101504.81;;;26.58;50.78
78773;BME280;68111;44.728;11.290;2023-08-17T05:00:14;101498.72;;;26.70;51.16
78773;BME280;68111;44.728;11.290;2023-08-17T05:02:42;101499.81;;;26.84;50.96
78773;BME280;68111;44.728;11.290;2023-08-17T05:05:10;101497.56;;;26.92;50.54
78773;BME280;68111;44.728;11.290;2023-08-17T05:07:37;101490.16;;;26.95;50.59
78773;BME280;68111;44.728;11.290;2023-08-17T05:10:04;101494.63;;;26.96;50.53
78773;BME280;68111;44.728;11.290;2023-08-17T05:12:34;101497.28;;;26.98;50.34
78773;BME280;68111;44.728;11.290;2023-08-17T05:15:01;101507.00;;;27.02;50.07
78773;BME280;68111;44.728;11.290;2023-08-17T05:17:29;101502.19;;;27.07;50.38
78773;BME280;68111;44.728;11.290;2023-08-17T05:19:57;101506.66;;;27.08;50.35
78773;BME280;68111;44.728;11.290;2023-08-17T05:22:23;101512.72;;;27.13;50.23
78773;BME280;68111;44.728;11.290;2023-08-17T05:24:50;101511.59;;;27.17;50.18
78773;BME280;68111;44.728;11.290;2023-08-17T05:27:18;101511.34;;;27.22;49.61
78773;BME280;68111;44.728;11.290;2023-08-17T05:29:47;101513.81;;;27.26;49.91
78773;BME280;68111;44.728;11.290;2023-08-17T05:32:14;101502.63;;;27.32;49.52
78773;BME280;68111;44.728;11.290;2023-08-17T05:34:41;101516.81;;;27.37;49.80
78773;BME280;68111;44.728;11.290;2023-08-17T05:37:08;101516.56;;;27.42;49.71
78773;BME280;68111;44.728;11.290;2023-08-17T05:39:35;101517.19;;;27.47;49.37
78773;BME280;68111;44.728;11.290;2023-08-17T05:42:02;101509.56;;;27.54;49.22
78773;BME280;68111;44.728;11.290;2023-08-17T05:44:29;101520.03;;;27.61;48.92
78773;BME280;68111;44.728;11.290;2023-08-17T05:46:56;101521.53;;;27.67;49.10
78773;BME280;68111;44.728;11.290;2023-08-17T05:49:23;101523.91;;;27.73;49.32
78773;BME280;68111;44.728;11.290;2023-08-17T05:51:49;101520.75;;;27.81;48.87
78773;BME280;68111;44.728;11.290;2023-08-17T05:54:16;101517.56;;;27.88;48.73
78773;BME280;68111;44.728;11.290;2023-08-17T05:56:43;101521.69;;;27.95;48.95
78773;BME280;68111;44.728;11.290;2023-08-17T05:59:13;101520.38;;;28.02;48.88
78773;BME280;68111;44.728;11.290;2023-08-17T06:01:40;101523.50;;;28.11;48.82
78773;BME280;68111;44.728;11.290;2023-08-17T06:04:07;101529.47;;;28.17;48.55
78773;BME280;68111;44.728;11.290;2023-08-17T06:06:34;101520.88;;;28.25;48.48
78773;BME280;68111;44.728;11.290;2023-08-17T06:09:01;101517.72;;;28.32;48.04
78773;BME280;68111;44.728;11.290;2023-08-17T06:11:28;101509.09;;;28.40;47.90
78773;BME280;68111;44.728;11.290;2023-08-17T06:13:55;101521.44;;;28.46;47.71
78773;BME280;68111;44.728;11.290;2023-08-17T06:16:21;101518.25;;;28.53;47.69
78773;BME280;68111;44.728;11.290;2023-08-17T06:18:48;101518.69;;;28.61;48.10
78773;BME280;68111;44.728;11.290;2023-08-17T06:21:16;101522.59;;;28.72;47.46
78773;BME280;68111;44.728;11.290;2023-08-17T06:23:43;101522.81;;;28.83;47.29
78773;BME280;68111;44.728;11.290;2023-08-17T06:26:10;101523.16;;;28.92;46.75
78773;BME280;68111;44.728;11.290;2023-08-17T06:28:37;101528.91;;;29.02;46.58
78773;BME280;68111;44.728;11.290;2023-08-17T06:31:04;101528.22;;;29.13;46.79
78773;BME280;68111;44.728;11.290;2023-08-17T06:33:31;101525.00;;;29.20;46.40
78773;BME280;68111;44.728;11.290;2023-08-17T06:35:58;101525.19;;;29.31;46.42
78773;BME280;68111;44.728;11.290;2023-08-17T06:38:24;101533.41;;;29.46;45.69
78773;BME280;68111;44.728;11.290;2023-08-17T06:40:52;101533.63;;;29.84;45.09
78773;BME280;68111;44.728;11.290;2023-08-17T06:43:19;101528.78;;;31.20;43.85
78773;BME280;68111;44.728;11.290;2023-08-17T06:45:45;101534.34;;;33.12;40.56
78773;BME280;68111;44.728;11.290;2023-08-17T06:48:12;101536.47;;;34.93;37.50
78773;BME280;68111;44.728;11.290;2023-08-17T06:50:39;101535.31;;;36.47;34.58
78773;BME280;68111;44.728;11.290;2023-08-17T06:53:07;101534.59;;;37.77;32.36
78773;BME280;68111;44.728;11.290;2023-08-17T06:55:34;101532.88;;;38.83;30.25
78773;BME280;68111;44.728;11.290;2023-08-17T06:58:01;101537.78;;;39.66;29.36
78773;BME280;68111;44.728;11.290;2023-08-17T07:00:28;101541.31;;;40.43;27.45
78773;BME280;68111;44.728;11.290;2023-08-17T07:02:54;101532.09;;;41.08;26.54
78773;BME280;68111;44.728;11.290;2023-08-17T07:05:26;101541.00;;;41.67;25.08
78773;BME280;68111;44.728;11.290;2023-08-17T07:07:52;101547.22;;;42.08;24.70
78773;BME280;68111;44.728;11.290;2023-08-17T07:10:20;101553.75;;;42.46;24.26
78773;BME280;68111;44.728;11.290;2023-08-17T07:12:46;101553.06;;;42.81;23.64
78773;BME280;68111;44.728;11.290;2023-08-17T07:15:13;101549.34;;;43.12;23.03
78773;BME280;68111;44.728;11.290;2023-08-17T07:17:40;101559.28;;;43.44;22.58
78773;BME280;68111;44.728;11.290;2023-08-17T07:20:07;101555.63;;;43.73;22.11
78773;BME280;68111;44.728;11.290;2023-08-17T07:22:37;101556.06;;;44.06;21.67
78773;BME280;68111;44.728;11.290;2023-08-17T07:25:04;101557.03;;;44.34;21.28
78773;BME280;68111;44.728;11.290;2023-08-17T07:27:31;101546.34;;;44.59;20.75
78773;BME280;68111;44.728;11.290;2023-08-17T07:29:58;101548.53;;;44.85;20.71
78773;BME280;68111;44.728;11.290;2023-08-17T07:32:25;101553.69;;;45.16;20.14
78773;BME280;68111;44.728;11.290;2023-08-17T07:34:52;101559.28;;;45.44;19.98
78773;BME280;68111;44.728;11.290;2023-08-17T07:37:19;101549.88;;;45.52;19.42
78773;BME280;68111;44.728;11.290;2023-08-17T07:39:46;101555.59;;;45.72;19.32
78773;BME280;68111;44.728;11.290;2023-08-17T07:42:13;101557.88;;;46.03;19.07
78773;BME280;68111;44.728;11.290;2023-08-17T07:44:41;101551.72;;;46.34;18.69
78773;BME280;68111;44.728;11.290;2023-08-17T07:47:08;101560.16;;;46.60;18.51
78773;BME280;68111;44.728;11.290;2023-08-17T07:49:35;101562.38;;;46.84;17.92
78773;BME280;68111;44.728;11.290;2023-08-17T07:52:02;101554.59;;;47.00;17.98
78773;BME280;68111;44.728;11.290;2023-08-17T07:54:29;101558.06;;;47.15;17.66
78773;BME280;68111;44.728;11.290;2023-08-17T07:56:55;101551.13;;;47.31;17.24
78773;BME280;68111;44.728;11.290;2023-08-17T07:59:22;101556.03;;;47.55;17.10
78773;BME280;68111;44.728;11.290;2023-08-17T08:01:49;101554.88;;;47.76;16.79
78773;BME280;68111;44.728;11.290;2023-08-17T08:04:16;101549.22;;;47.89;17.50
78773;BME280;68111;44.728;11.290;2023-08-17T08:06:43;101557.38;;;47.97;16.69
78773;BME280;68111;44.728;11.290;2023-08-17T08:09:10;101548.41;;;47.82;16.74
78773;BME280;68111;44.728;11.290;2023-08-17T08:11:36;101554.47;;;47.66;16.64
78773;BME280;68111;44.728;11.290;2023-08-17T08:14:03;101558.78;;;47.68;16.76
78773;BME280;68111;44.728;11.290;2023-08-17T08:16:30;101561.25;;;47.96;16.49
78773;BME280;68111;44.728;11.290;2023-08-17T08:18:58;101552.88;;;48.34;16.35
78773;BME280;68111;44.728;11.290;2023-08-17T08:21:24;101555.63;;;48.41;15.78
78773;BME280;68111;44.728;11.290;2023-08-17T08:23:53;101553.66;;;48.48;15.99
78773;BME280;68111;44.728;11.290;2023-08-17T08:26:20;101555.97;;;48.83;15.73
78773;BME280;68111;44.728;11.290;2023-08-17T08:28:46;101545.75;;;49.13;15.43
78773;BME280;68111;44.728;11.290;2023-08-17T08:31:13;101552.31;;;49.07;15.29
78773;BME280;68111;44.728;11.290;2023-08-17T08:33:40;101547.53;;;49.08;15.31
78773;BME280;68111;44.728;11.290;2023-08-17T08:36:07;101547.00;;;49.17;14.84
78773;BME280;68111;44.728;11.290;2023-08-17T08:38:34;101549.84;;;49.35;14.99
78773;BME280;68111;44.728;11.290;2023-08-17T08:41:01;101553.88;;;49.64;14.67
78773;BME280;68111;44.728;11.290;2023-08-17T08:43:29;101549.47;;;50.05;14.50
78773;BME280;68111;44.728;11.290;2023-08-17T08:45:58;101541.28;;;50.15;13.96
78773;BME280;68111;44.728;11.290;2023-08-17T08:48:26;101545.31;;;50.38;13.45
78773;BME280;68111;44.728;11.290;2023-08-17T08:50:55;101556.47;;;50.56;13.46
78773;BME280;68111;44.728;11.290;2023-08-17T08:53:31;101552.75;;;50.74;13.59
78773;BME280;68111;44.728;11.290;2023-08-17T08:56:03;101548.88;;;50.98;13.59
78773;BME280;68111;44.728;11.290;2023-08-17T08:58:31;101542.88;;;51.06;13.40
78773;BME280;68111;44.728;11.290;2023-08-17T09:01:00;101551.06;;;50.84;13.33
78773;BME280;68111;44.728;11.290;2023-08-17T09:03:28;101535.75;;;50.92;13.83
78773;BME280;68111;44.728;11.290;2023-08-17T09:05:57;101548.25;;;51.08;13.18
78773;BME280;68111;44.728;11.290;2023-08-17T09:08:29;101543.59;;;51.13;13.33
78773;BME280;68111;44.728;11.290;2023-08-17T09:10:56;101539.91;;;51.13;13.27
78773;BME280;68111;44.728;11.290;2023-08-17T09:13:23;101545.31;;;51.03;13.33
78773;BME280;68111;44.728;11.290;2023-08-17T09:15:50;101541.75;;;50.84;13.00
78773;BME280;68111;44.728;11.290;2023-08-17T09:18:17;101539.81;;;50.54;13.20
78773;BME280;68111;44.728;11.290;2023-08-17T09:20:46;101531.41;;;50.66;13.37
78773;BME280;68111;44.728;11.290;2023-08-17T09:23:19;101535.41;;;51.00;12.60
78773;BME280;68111;44.728;11.290;2023-08-17T09:25:47;101528.03;;;51.34;12.97
78773;BME280;68111;44.728;11.290;2023-08-17T09:28:17;101528.03;;;51.22;12.54
78773;BME280;68111;44.728;11.290;2023-08-17T09:33:26;101521.00;;;49.47;13.69
78773;BME280;68111;44.728;11.290;2023-08-17T09:35:54;101523.47;;;49.37;14.10
78773;BME280;68111;44.728;11.290;2023-08-17T09:38:26;101522.16;;;49.39;13.86
78773;BME280;68111;44.728;11.290;2023-08-17T09:40:53;101515.28;;;49.72;13.65
78773;BME280;68111;44.728;11.290;2023-08-17T09:43:20;101516.22;;;50.14;13.46
78773;BME280;68111;44.728;11.290;2023-08-17T09:45:48;101509.72;;;50.55;13.25
78773;BME280;68111;44.728;11.290;2023-08-17T09:48:19;101507.31;;;50.28;13.23
78773;BME280;68111;44.728;11.290;2023-08-17T09:50:47;101516.28;;;49.95;12.79
78773;BME280;68111;44.728;11.290;2023-08-17T09:53:16;101508.63;;;49.84;13.11
78773;BME280;68111;44.728;11.290;2023-08-17T09:55:46;101512.19;;;49.61;13.17
78773;BME280;68111;44.728;11.290;2023-08-17T09:58:14;101507.72;;;49.54;13.26
78773;BME280;68111;44.728;11.290;2023-08-17T10:00:49;101502.56;;;49.51;13.30
78773;BME280;68111;44.728;11.290;2023-08-17T10:03:19;101506.44;;;49.86;12.85
78773;BME280;68111;44.728;11.290;2023-08-17T10:06:04;101494.31;;;50.16;12.69
78773;BME280;68111;44.728;11.290;2023-08-17T10:08:46;101507.00;;;50.37;12.53
78773;BME280;68111;44.728;11.290;2023-08-17T10:11:18;101498.97;;;50.64;12.31
78773;BME280;68111;44.728;11.290;2023-08-17T10:13:52;101507.22;;;50.77;12.29
78773;BME280;68111;44.728;11.290;2023-08-17T10:16:29;101500.50;;;50.36;12.69
78773;BME280;68111;44.728;11.290;2023-08-17T10:22:02;101497.56;;;49.71;12.93
78773;BME280;68111;44.728;11.290;2023-08-17T10:24:32;101487.75;;;49.62;12.79
78773;BME280;68111;44.728;11.290;2023-08-17T10:27:04;101484.28;;;49.42;12.93
78773;BME280;68111;44.728;11.290;2023-08-17T10:29:33;101471.75;;;49.26;13.02
78773;BME280;68111;44.728;11.290;2023-08-17T10:32:01;101478.03;;;49.03;13.25
78773;BME280;68111;44.728;11.290;2023-08-17T10:34:29;101481.38;;;48.93;12.98
78773;BME280;68111;44.728;11.290;2023-08-17T10:36:56;101484.03;;;48.63;13.16
78773;BME280;68111;44.728;11.290;2023-08-17T10:39:28;101475.31;;;48.22;13.44
78773;BME280;68111;44.728;11.290;2023-08-17T10:41:57;101482.41;;;47.79;13.83
78773;BME280;68111;44.728;11.290;2023-08-17T10:47:26;101471.03;;;46.31;14.84
78773;BME280;68111;44.728;11.290;2023-08-17T10:50:06;101470.06;;;45.71;14.91
78773;BME280;68111;44.728;11.290;2023-08-17T10:52:35;101462.53;;;45.30;15.70
78773;BME280;68111;44.728;11.290;2023-08-17T10:55:05;101461.28;;;45.05;15.71
78773;BME280;68111;44.728;11.290;2023-08-17T10:57:37;101456.78;;;45.04;15.83
78773;BME280;68111;44.728;11.290;2023-08-17T11:03:00;101448.09;;;44.36;15.93
78773;BME280;68111;44.728;11.290;2023-08-17T11:05:48;101449.97;;;43.71;16.42
78773;BME280;68111;44.728;11.290;2023-08-17T11:08:20;101440.72;;;43.20;17.35
78773;BME280;68111;44.728;11.290;2023-08-17T11:11:10;101442.97;;;42.72;17.47
78773;BME280;68111;44.728;11.290;2023-08-17T11:13:39;101442.34;;;42.47;17.78
78773;BME280;68111;44.728;11.290;2023-08-17T11:16:08;101447.34;;;42.29;17.58
78773;BME280;68111;44.728;11.290;2023-08-17T11:18:36;101436.44;;;42.05;17.91
78773;BME280;68111;44.728;11.290;2023-08-17T11:21:07;101437.47;;;41.81;18.38
78773;BME280;68111;44.728;11.290;2023-08-17T11:23:36;101432.22;;;41.63;18.75
78773;BME280;68111;44.728;11.290;2023-08-17T11:26:04;101433.25;;;41.62;18.78
78773;BME280;68111;44.728;11.290;2023-08-17T11:28:31;101426.84;;;41.62;19.00
78773;BME280;68111;44.728;11.290;2023-08-17T11:31:09;101423.78;;;41.40;19.09
78773;BME280;68111;44.728;11.290;2023-08-17T11:33:38;101413.25;;;41.28;19.47
78773;BME280;68111;44.728;11.290;2023-08-17T11:36:06;101407.72;;;41.19;19.93
78773;BME280;68111;44.728;11.290;2023-08-17T11:38:34;101408.34;;;40.99;20.02
78773;BME280;68111;44.728;11.290;2023-08-17T11:41:02;101405.81;;;40.81;20.61
78773;BME280;68111;44.728;11.290;2023-08-17T11:43:30;101403.56;;;40.60;20.65
78773;BME280;68111;44.728;11.290;2023-08-17T11:45:57;101405.19;;;40.38;21.07
78773;BME280;68111;44.728;11.290;2023-08-17T11:48:24;101396.66;;;40.15;21.15
78773;BME280;68111;44.728;11.290;2023-08-17T11:50:53;101404.09;;;39.98;21.50
78773;BME280;68111;44.728;11.290;2023-08-17T11:53:21;101396.44;;;39.84;21.62
78773;BME280;68111;44.728;11.290;2023-08-17T11:55:48;101400.41;;;39.74;21.71
78773;BME280;68111;44.728;11.290;2023-08-17T11:58:43;101392.97;;;39.66;22.05
78773;BME280;68111;44.728;11.290;2023-08-17T12:01:12;101394.69;;;39.67;21.88
78773;BME280;68111;44.728;11.290;2023-08-17T12:03:40;101396.09;;;39.71;22.03
78773;BME280;68111;44.728;11.290;2023-08-17T12:06:10;101390.53;;;39.71;21.71
78773;BME280;68111;44.728;11.290;2023-08-17T12:08:37;101389.84;;;39.61;22.24
78773;BME280;68111;44.728;11.290;2023-08-17T12:11:04;101391.19;;;39.49;21.97
78773;BME280;68111;44.728;11.290;2023-08-17T12:13:34;101383.88;;;39.40;22.29
78773;BME280;68111;44.728;11.290;2023-08-17T12:16:02;101385.59;;;39.32;22.43
78773;BME280;68111;44.728;11.290;2023-08-17T12:18:33;101387.63;;;39.22;22.77
78773;BME280;68111;44.728;11.290;2023-08-17T12:21:01;101378.97;;;39.17;22.59
78773;BME280;68111;44.728;11.290;2023-08-17T12:23:28;101379.47;;;39.13;22.84
78773;BME280;68111;44.728;11.290;2023-08-17T12:25:55;101383.09;;;39.05;22.88
78773;BME280;68111;44.728;11.290;2023-08-17T12:28:25;101375.22;;;39.00;22.65
78773;BME280;68111;44.728;11.290;2023-08-17T12:31:02;101371.59;;;39.00;23.25
78773;BME280;68111;44.728;11.290;2023-08-17T12:33:29;101380.91;;;38.99;22.93
78773;BME280;68111;44.728;11.290;2023-08-17T12:35:56;101376.06;;;38.93;22.92
78773;BME280;68111;44.728;11.290;2023-08-17T12:38:24;101386.41;;;38.91;23.03
78773;BME280;68111;44.728;11.290;2023-08-17T12:40:52;101378.63;;;38.86;23.08
78773;BME280;68111;44.728;11.290;2023-08-17T12:43:19;101370.50;;;38.85;23.25
78773;BME280;68111;44.728;11.290;2023-08-17T12:45:45;101360.47;;;38.84;23.33
78773;BME280;68111;44.728;11.290;2023-08-17T12:48:12;101357.31;;;38.79;23.48
78773;BME280;68111;44.728;11.290;2023-08-17T12:50:39;101355.06;;;38.74;23.87
78773;BME280;68111;44.728;11.290;2023-08-17T12:53:10;101354.91;;;38.76;23.57
78773;BME280;68111;44.728;11.290;2023-08-17T12:55:37;101357.16;;;38.80;23.64
78773;BME280;68111;44.728;11.290;2023-08-17T12:58:04;101351.44;;;38.73;23.35
78773;BME280;68111;44.728;11.290;2023-08-17T13:00:31;101351.56;;;38.64;23.74
78773;BME280;68111;44.728;11.290;2023-08-17T13:02:58;101353.03;;;38.58;23.77
78773;BME280;68111;44.728;11.290;2023-08-17T13:05:25;101355.34;;;38.63;23.57
78773;BME280;68111;44.728;11.290;2023-08-17T13:07:52;101350.53;;;38.65;23.71